createdAt,value
2023-03-03T00:01:50.016Z,0.36
2023-03-03T00:04:19.388Z,0.36
2023-03-03T00:06:48.768Z,0.35
2023-03-03T00:09:18.158Z,0.36
2023-03-03T00:11:50.934Z,0.35
2023-03-03T00:14:33.583Z,0.33
2023-03-03T00:17:15.689Z,0.35
2023-03-03T00:19:48.108Z,0.41
2023-03-03T00:22:29.320Z,0.42
2023-03-03T00:25:29.333Z,0.42
2023-03-03T00:28:17.215Z,0.41
2023-03-03T00:30:46.989Z,0.39
2023-03-03T00:33:51.084Z,0.36
2023-03-03T00:36:37.535Z,0.32
2023-03-03T00:39:25.579Z,0.29
2023-03-03T00:41:54.928Z,0.25
2023-03-03T00:45:03.338Z,0.19
2023-03-03T00:47:39.391Z,0.17
2023-03-03T00:50:12.500Z,0.14
2023-03-03T00:52:53.538Z,0.11
2023-03-03T00:55:22.827Z,0.07
2023-03-03T00:57:52.081Z,0.03
2023-03-03T04:01:23.448Z,0.19
2023-03-03T04:03:54.132Z,0.17
2023-03-03T04:06:25.827Z,0.20
2023-03-03T04:08:57.270Z,0.18
2023-03-03T04:11:27.793Z,0.22
2023-03-03T04:13:57.480Z,0.25
2023-03-03T04:16:27.022Z,0.30
2023-03-03T04:18:56.184Z,0.31
2023-03-03T04:21:28.448Z,0.34
2023-03-03T04:24:00.288Z,0.37
2023-03-03T04:26:32.170Z,0.38
2023-03-03T04:29:02.523Z,0.40
2023-03-03T04:31:32.597Z,0.42
2023-03-03T04:34:03.156Z,0.40
2023-03-03T04:36:33.078Z,0.36
2023-03-03T04:39:02.933Z,0.36
2023-03-03T04:41:32.619Z,0.36
2023-03-03T04:44:02.544Z,0.36
2023-03-03T04:46:32.300Z,0.37
2023-03-03T04:49:02.194Z,0.36
2023-03-03T04:51:32.098Z,0.38
2023-03-03T04:54:01.437Z,0.38
2023-03-03T04:56:32.480Z,0.39
2023-03-03T04:59:02.631Z,0.46
2023-03-03T05:01:32.986Z,0.48
2023-03-03T05:04:03.563Z,0.49
2023-03-03T05:06:33.222Z,0.54
2023-03-03T05:09:02.874Z,0.57
2023-03-03T05:11:33.171Z,0.59
2023-03-03T05:14:03.710Z,0.61
2023-03-03T05:16:34.067Z,0.64
2023-03-03T05:19:03.993Z,0.63
2023-03-03T05:21:33.386Z,0.61
2023-03-03T05:24:02.828Z,0.59
2023-03-03T05:26:32.058Z,0.53
2023-03-03T05:29:01.551Z,0.52
2023-03-03T05:31:31.264Z,0.51
2023-03-03T05:34:01.313Z,0.55
2023-03-03T05:36:30.517Z,0.57
2023-03-03T05:39:00.848Z,0.56
2023-03-03T05:41:30.127Z,0.52
2023-03-03T05:43:59.820Z,0.51
2023-03-03T05:46:29.769Z,0.48
2023-03-03T05:48:58.550Z,0.50
2023-03-03T05:51:27.910Z,0.53
2023-03-03T05:53:57.298Z,0.56
2023-03-03T05:56:26.857Z,0.52
2023-03-03T05:58:56.776Z,0.51
2023-03-03T06:01:26.043Z,0.53
2023-03-03T06:03:55.858Z,0.53
2023-03-03T06:06:29.247Z,0.53
2023-03-03T06:08:58.155Z,0.55
2023-03-03T06:11:27.390Z,0.58
2023-03-03T06:13:56.432Z,0.62
2023-03-03T06:16:25.929Z,0.63
2023-03-03T06:18:56.231Z,0.58
2023-03-03T06:21:25.333Z,0.54
2023-03-03T06:23:55.191Z,0.58
2023-03-03T06:26:24.983Z,0.67
2023-03-03T06:28:55.981Z,0.69
2023-03-03T06:31:26.194Z,0.72
2023-03-03T06:33:55.795Z,0.70
2023-03-03T06:36:26.040Z,0.66
2023-03-03T06:38:55.327Z,0.66
2023-03-03T06:41:23.864Z,0.64
2023-03-03T06:43:52.226Z,0.67
2023-03-03T06:46:21.311Z,0.67
2023-03-03T06:48:50.454Z,0.68
2023-03-03T06:51:31.195Z,0.66
2023-03-03T06:54:07.782Z,0.65
2023-03-03T06:56:38.374Z,0.63
2023-03-03T06:59:14.216Z,0.62
2023-03-03T07:01:43.858Z,0.67
2023-03-03T07:04:34.247Z,0.68
2023-03-03T07:07:19.235Z,0.72
2023-03-03T07:09:51.219Z,0.77
2023-03-03T07:12:23.501Z,0.82
2023-03-03T07:15:22.296Z,0.85
2023-03-03T07:18:00.393Z,0.90
2023-03-03T07:20:48.339Z,0.92
2023-03-03T07:23:25.869Z,0.95
2023-03-03T07:25:55.946Z,0.92
2023-03-03T07:28:30.335Z,0.92
2023-03-03T07:31:00.251Z,0.92
2023-03-03T07:33:36.040Z,0.92
2023-03-03T07:36:23.744Z,0.92
2023-03-03T07:38:55.701Z,0.96
2023-03-03T07:41:25.819Z,0.95
2023-03-03T07:44:20.204Z,0.90
2023-03-03T07:46:52.038Z,0.86
2023-03-03T07:49:38.077Z,0.87
2023-03-03T07:52:30.902Z,0.92
2023-03-03T07:55:18.545Z,0.92
2023-03-03T07:57:47.765Z,0.91
2023-03-03T08:00:17.179Z,0.94
2023-03-03T08:02:56.045Z,1.00
2023-03-03T08:05:31.939Z,1.02
2023-03-03T08:08:32.048Z,1.06
2023-03-03T08:11:02.492Z,1.02
2023-03-03T08:13:43.821Z,1.00
2023-03-03T08:16:12.523Z,0.99
2023-03-03T08:18:48.835Z,0.96
2023-03-03T08:21:26.175Z,0.93
2023-03-03T08:23:55.433Z,0.90
2023-03-03T08:26:26.383Z,0.85
2023-03-03T08:28:56.330Z,0.80
2023-03-03T08:31:40.270Z,0.73
2023-03-03T08:34:10.822Z,0.66
2023-03-03T08:36:40.286Z,0.58
2023-03-03T08:39:10.449Z,0.58
2023-03-03T08:41:44.676Z,0.62
2023-03-03T08:44:13.940Z,0.63
2023-03-03T08:46:44.619Z,0.65
2023-03-03T08:49:13.864Z,0.72
2023-03-03T08:51:42.987Z,0.76
2023-03-03T08:54:12.373Z,0.80
2023-03-03T08:56:41.658Z,0.89
2023-03-03T08:59:11.624Z,0.97
2023-03-03T09:01:40.828Z,1.04
2023-03-03T09:04:10.307Z,1.09
2023-03-03T09:06:39.737Z,1.10
2023-03-03T09:09:09.013Z,1.16
2023-03-03T09:11:38.612Z,1.21
2023-03-03T09:14:18.627Z,1.25
2023-03-03T09:16:55.146Z,1.31
2023-03-03T09:19:31.177Z,1.38
2023-03-03T09:22:18.603Z,1.42
2023-03-03T09:24:51.014Z,1.44
2023-03-03T09:27:31.907Z,1.47
2023-03-03T09:30:27.941Z,1.53
2023-03-03T09:32:59.022Z,1.60
2023-03-03T09:35:41.121Z,1.59
2023-03-03T09:38:30.761Z,1.67
2023-03-03T09:41:05.441Z,1.75
2023-03-03T09:44:00.687Z,1.80
2023-03-03T09:46:57.455Z,1.86
2023-03-03T09:49:36.400Z,1.88
2023-03-03T09:52:27.813Z,1.91
2023-03-03T09:55:17.558Z,1.90
2023-03-03T09:58:08.263Z,1.90
2023-03-03T10:00:55.941Z,1.89
2023-03-03T10:03:47.960Z,1.96
2023-03-03T10:06:51.878Z,2.04
2023-03-03T10:09:54.490Z,2.04
2023-03-03T10:12:55.963Z,2.07
2023-03-03T10:15:33.949Z,2.11
2023-03-03T10:18:31.025Z,2.16
2023-03-03T10:21:22.125Z,2.24
2023-03-03T10:23:58.853Z,2.32
2023-03-03T10:26:43.473Z,2.39
2023-03-03T10:29:34.805Z,2.45
2023-03-03T10:32:19.438Z,2.49
2023-03-03T10:35:01.182Z,2.56
2023-03-03T10:37:51.940Z,2.64
2023-03-03T10:41:06.530Z,2.69
2023-03-03T10:44:03.583Z,2.73
2023-03-03T10:47:15.864Z,2.78
2023-03-03T10:49:56.028Z,2.84
2023-03-03T10:53:06.613Z,2.86
2023-03-03T10:55:55.573Z,2.92
2023-03-03T10:58:48.178Z,2.97
2023-03-03T11:01:41.536Z,3.04
2023-03-03T11:04:47.874Z,3.10
2023-03-03T11:07:36.865Z,3.22
2023-03-03T11:10:21.429Z,3.29
2023-03-03T11:13:01.704Z,3.35
2023-03-03T11:15:54.246Z,3.40
2023-03-03T11:18:36.910Z,3.47
2023-03-03T11:21:25.682Z,3.55
2023-03-03T11:24:03.692Z,3.58
2023-03-03T11:27:12.861Z,3.62
2023-03-03T11:29:53.828Z,3.68
2023-03-03T11:32:36.759Z,3.73
2023-03-03T11:35:50.471Z,3.74
2023-03-03T11:38:26.766Z,3.73
2023-03-03T11:41:00.663Z,3.75
2023-03-03T11:43:52.813Z,3.76
2023-03-03T11:46:39.027Z,3.80
2023-03-03T11:49:33.531Z,3.86
2023-03-03T11:52:06.189Z,3.88
2023-03-03T11:54:49.930Z,3.86
2023-03-03T11:57:47.461Z,3.86
2023-03-03T12:00:27.301Z,3.89
2023-03-03T12:03:26.823Z,3.96
2023-03-03T12:06:24.551Z,4.08
2023-03-03T12:09:38.803Z,4.12
2023-03-03T12:12:20.311Z,4.17
2023-03-03T12:15:03.253Z,4.20
2023-03-03T12:17:57.605Z,4.16
2023-03-03T12:20:45.472Z,4.18
2023-03-03T12:23:44.116Z,4.24
2023-03-03T12:26:41.318Z,4.25
2023-03-03T12:29:31.791Z,4.26
2023-03-03T12:32:22.037Z,4.27
2023-03-03T12:35:08.077Z,4.29
2023-03-03T12:38:07.301Z,4.34
2023-03-03T12:40:46.341Z,4.37
2023-03-03T12:43:24.675Z,4.37
2023-03-03T12:45:56.677Z,4.38
2023-03-03T12:48:37.666Z,4.39
2023-03-03T12:51:13.413Z,4.43
2023-03-03T12:54:10.439Z,4.49
2023-03-03T12:56:52.260Z,4.53
2023-03-03T12:59:36.683Z,4.58
2023-03-03T13:02:41.379Z,4.62
2023-03-03T13:05:21.361Z,4.65
2023-03-03T13:08:15.778Z,4.63
2023-03-03T13:11:15.162Z,4.64
2023-03-03T13:14:03.464Z,4.69
2023-03-03T13:16:41.736Z,4.70
2023-03-03T13:19:19.046Z,4.69
2023-03-03T13:22:18.939Z,4.69
2023-03-03T13:24:54.156Z,4.74
2023-03-03T13:27:28.970Z,4.85
2023-03-03T13:30:31.459Z,4.91
2023-03-03T13:33:24.071Z,4.90
2023-03-03T13:36:05.280Z,4.90
2023-03-03T13:38:54.028Z,4.86
2023-03-03T13:41:25.631Z,4.88
2023-03-03T13:44:20.793Z,4.92
2023-03-03T13:47:08.392Z,4.92
2023-03-03T13:50:02.351Z,5.00
2023-03-03T13:52:54.970Z,5.01
2023-03-03T13:55:46.344Z,4.96
2023-03-03T13:58:27.858Z,4.88
2023-03-03T14:01:18.405Z,4.86
2023-03-03T14:04:10.564Z,4.87
2023-03-03T14:06:41.839Z,4.89
2023-03-03T14:09:34.584Z,4.87
2023-03-03T14:12:21.592Z,4.79
2023-03-03T14:15:10.473Z,4.74
2023-03-03T14:18:04.761Z,4.70
2023-03-03T14:20:49.902Z,4.71
2023-03-03T14:23:50.369Z,4.69
2023-03-03T14:26:20.513Z,4.63
2023-03-03T14:28:52.867Z,4.56
2023-03-03T14:31:32.209Z,4.54
2023-03-03T14:34:03.429Z,4.50
2023-03-03T14:36:43.197Z,4.48
2023-03-03T14:39:35.584Z,4.48
2023-03-03T14:42:15.067Z,4.47
2023-03-03T14:44:47.548Z,4.50
2023-03-03T14:47:27.531Z,4.49
2023-03-03T14:50:03.733Z,4.47
2023-03-03T14:52:35.384Z,4.48
2023-03-03T14:55:36.656Z,4.48
2023-03-03T14:58:24.698Z,4.43
2023-03-03T15:01:23.755Z,4.37
2023-03-03T15:04:05.739Z,4.31
2023-03-03T15:06:50.873Z,4.29
2023-03-03T15:09:40.354Z,4.26
2023-03-03T15:12:27.193Z,4.22
2023-03-03T15:15:11.421Z,4.22
2023-03-03T15:17:57.292Z,4.18
2023-03-03T15:20:38.750Z,4.14
2023-03-03T15:23:14.083Z,4.15
2023-03-03T15:26:07.614Z,4.13
2023-03-03T15:29:09.309Z,4.14
2023-03-03T15:32:09.134Z,4.12
2023-03-03T15:34:49.189Z,4.12
2023-03-03T15:37:27.796Z,4.08
2023-03-03T15:40:20.101Z,4.05
2023-03-03T15:42:56.949Z,3.98
2023-03-03T15:45:28.775Z,3.92
2023-03-03T15:48:07.482Z,3.87
2023-03-03T15:50:46.041Z,3.87
2023-03-03T15:53:53.374Z,3.82
2023-03-03T15:56:58.007Z,3.76
2023-03-03T15:59:51.615Z,3.70
2023-03-03T16:02:49.889Z,3.71
2023-03-03T16:05:36.373Z,3.71
2023-03-03T16:08:46.338Z,3.67
2023-03-03T16:11:33.243Z,3.66
2023-03-03T16:14:15.000Z,3.65
2023-03-03T16:17:25.145Z,3.62
2023-03-03T16:20:37.320Z,3.51
2023-03-03T16:23:21.219Z,3.49
2023-03-03T16:26:07.482Z,3.50
2023-03-03T16:28:57.459Z,3.47
2023-03-03T16:31:42.411Z,3.45
2023-03-03T16:34:33.578Z,3.44
2023-03-03T16:37:27.681Z,3.43
2023-03-03T16:40:09.076Z,3.44
2023-03-03T16:42:38.502Z,3.43
2023-03-03T16:45:26.104Z,3.42
2023-03-03T16:47:59.223Z,3.38
2023-03-03T16:50:37.764Z,3.37
2023-03-03T16:53:44.706Z,3.33
2023-03-03T16:56:53.511Z,3.30
2023-03-03T16:59:42.441Z,3.28
2023-03-03T17:02:21.131Z,3.24
2023-03-03T17:05:19.885Z,3.23
2023-03-03T17:07:55.029Z,3.19
2023-03-03T17:10:32.000Z,3.20
2023-03-03T17:13:25.828Z,3.20
2023-03-03T17:16:51.057Z,3.20
2023-03-03T17:20:03.828Z,3.22
2023-03-03T17:23:14.614Z,3.17
2023-03-03T17:25:56.001Z,3.13
2023-03-03T17:28:32.381Z,3.09
2023-03-03T17:31:33.576Z,3.10
2023-03-03T17:34:21.477Z,3.08
2023-03-03T17:37:01.247Z,3.07
2023-03-03T17:40:07.989Z,3.03
2023-03-03T17:43:07.913Z,3.00
2023-03-03T17:45:42.383Z,2.96
2023-03-03T17:48:45.914Z,2.90
2023-03-03T17:51:40.665Z,2.87
2023-03-03T17:54:44.589Z,2.84
2023-03-03T17:57:22.780Z,2.74
2023-03-03T18:00:23.184Z,2.70
2023-03-03T18:03:07.045Z,2.69
2023-03-03T18:05:48.286Z,2.66
2023-03-03T18:08:42.384Z,2.62
2023-03-03T18:11:11.756Z,2.60
2023-03-03T18:14:09.602Z,2.53
2023-03-03T18:17:13.377Z,2.46
2023-03-03T18:20:13.950Z,2.46
2023-03-03T18:22:44.442Z,2.44
2023-03-03T18:25:17.791Z,2.43
2023-03-03T18:28:08.738Z,2.46
2023-03-03T18:30:56.757Z,2.45
2023-03-03T18:34:09.535Z,2.44
2023-03-03T18:36:54.389Z,2.43
2023-03-03T18:39:46.472Z,2.43
2023-03-03T18:42:31.458Z,2.41
2023-03-03T18:45:20.251Z,2.39
2023-03-03T18:48:02.486Z,2.40
2023-03-03T18:50:37.158Z,2.42
2023-03-03T18:53:26.932Z,2.39
2023-03-03T18:55:58.932Z,2.33
2023-03-03T18:58:33.797Z,2.30
2023-03-03T19:01:11.168Z,2.27
2023-03-03T19:03:47.839Z,2.22
2023-03-03T19:06:39.424Z,2.20
2023-03-03T19:09:13.020Z,2.19
2023-03-03T19:11:42.615Z,2.19
2023-03-03T19:14:36.919Z,2.15
2023-03-03T19:17:18.746Z,2.12
2023-03-03T19:20:02.900Z,2.14
2023-03-03T19:22:48.187Z,2.14
2023-03-03T19:25:25.220Z,2.12
2023-03-03T19:28:30.427Z,2.10
2023-03-03T19:31:08.994Z,2.12
2023-03-03T19:33:46.008Z,2.12
2023-03-03T19:36:39.667Z,2.07
2023-03-03T19:39:20.573Z,2.05
2023-03-03T19:42:11.140Z,2.03
2023-03-03T19:45:27.544Z,2.03
2023-03-03T19:47:58.971Z,2.05
2023-03-03T19:50:42.062Z,2.08
2023-03-03T19:53:25.699Z,2.10
2023-03-03T19:56:32.455Z,2.12
2023-03-03T19:59:26.237Z,2.17
2023-03-03T20:02:21.842Z,2.19
2023-03-03T20:05:28.224Z,2.21
2023-03-03T20:08:28.637Z,2.23
2023-03-03T20:11:16.973Z,2.24
2023-03-03T20:14:04.217Z,2.29
2023-03-03T20:16:37.930Z,2.31
2023-03-03T20:19:22.471Z,2.36
2023-03-03T20:21:59.910Z,2.42
2023-03-03T20:24:43.872Z,2.44
2023-03-03T20:27:15.737Z,2.47
2023-03-03T20:29:57.696Z,2.48
2023-03-03T20:32:56.726Z,2.51
2023-03-03T20:35:29.393Z,2.58
2023-03-03T20:38:14.924Z,2.63
2023-03-03T20:41:22.891Z,2.68
2023-03-03T20:43:59.692Z,2.72
2023-03-03T20:46:51.016Z,2.71
2023-03-03T20:49:25.665Z,2.72
2023-03-03T20:52:04.110Z,2.72
2023-03-03T20:54:54.883Z,2.71
2023-03-03T20:57:34.222Z,2.73
2023-03-03T21:00:14.920Z,2.70
2023-03-03T21:02:52.871Z,2.67
2023-03-03T21:05:24.015Z,2.65
2023-03-03T21:07:58.461Z,2.65
2023-03-03T21:10:30.438Z,2.68
2023-03-03T21:13:41.533Z,2.69
2023-03-03T21:16:23.921Z,2.69
2023-03-03T21:18:59.788Z,2.69
2023-03-03T21:21:30.964Z,2.70
2023-03-03T21:24:00.313Z,2.71
2023-03-03T21:26:52.871Z,2.73
2023-03-03T21:29:35.832Z,2.72
2023-03-03T21:32:05.889Z,2.71
2023-03-03T21:34:44.922Z,2.69
2023-03-03T21:37:35.131Z,2.69
2023-03-03T21:40:26.206Z,2.69
2023-03-03T21:42:59.848Z,2.70
2023-03-03T21:45:30.289Z,2.70
2023-03-03T21:48:02.521Z,2.70
2023-03-03T21:50:32.975Z,2.76
2023-03-03T21:55:00.358Z,2.83
2023-03-03T21:57:28.880Z,2.82
2023-03-03T21:59:57.123Z,2.77
2023-03-03T22:02:25.448Z,2.70
2023-03-03T22:04:53.906Z,2.64
2023-03-03T22:07:22.001Z,2.61
2023-03-03T22:09:50.495Z,2.56
2023-03-03T22:12:22.120Z,2.45
2023-03-03T22:14:51.636Z,2.35
2023-03-03T22:17:20.293Z,2.28
2023-03-03T22:19:48.758Z,2.24
2023-03-03T22:22:18.127Z,2.17
2023-03-03T22:24:47.819Z,2.08
2023-03-03T22:27:16.497Z,2.00
2023-03-03T22:29:45.650Z,1.97
2023-03-03T22:32:14.435Z,1.97
2023-03-03T22:34:44.035Z,1.99
2023-03-03T22:37:12.848Z,1.99
2023-03-03T22:39:42.036Z,1.99
2023-03-03T22:42:11.924Z,1.98
2023-03-03T22:44:40.684Z,1.98
2023-03-03T22:47:09.951Z,1.96
2023-03-03T22:49:39.242Z,1.94
2023-03-03T22:52:08.438Z,1.93
2023-03-03T22:54:36.623Z,1.92
2023-03-03T22:57:05.240Z,1.91
2023-03-03T22:59:35.167Z,1.93
2023-03-03T23:02:04.430Z,1.93
2023-03-03T23:04:33.690Z,1.93
2023-03-03T23:07:02.733Z,1.93
2023-03-03T23:09:31.636Z,1.92
2023-03-03T23:12:00.825Z,1.91
2023-03-03T23:14:29.862Z,1.90
2023-03-03T23:16:59.165Z,1.88
2023-03-03T23:19:28.625Z,1.88
2023-03-03T23:21:58.414Z,1.91
2023-03-03T23:24:31.127Z,1.90
2023-03-03T23:27:01.136Z,1.88
2023-03-03T23:29:32.025Z,1.87
2023-03-03T23:32:00.948Z,1.87
2023-03-03T23:34:30.608Z,1.87
2023-03-03T23:36:59.237Z,1.87
2023-03-03T23:39:27.694Z,1.86
2023-03-03T23:41:56.778Z,1.86
2023-03-03T23:44:25.757Z,1.86
2023-03-03T23:46:56.941Z,1.86
2023-03-03T23:49:26.209Z,1.86
2023-03-03T23:51:55.665Z,1.85
2023-03-03T23:54:25.411Z,1.84
2023-03-03T23:56:54.224Z,1.83
2023-03-03T23:59:23.573Z,1.81
